createdAt,value
2023-04-18T00:03:21.486Z,101541.30
2023-04-18T00:06:39.333Z,101540.77
2023-04-18T00:10:34.214Z,101543.45
2023-04-18T00:14:00.792Z,101541.39
2023-04-18T00:17:48.357Z,101541.23
2023-04-18T00:21:44.045Z,101542.25
2023-04-18T00:25:01.021Z,101544.91
2023-04-18T00:28:46.840Z,101546.06
2023-04-18T00:32:24.291Z,101543.73
2023-04-18T00:36:10.541Z,101543.79
2023-04-18T00:39:38.237Z,101544.55
2023-04-18T00:43:25.093Z,101543.86
2023-04-18T00:47:01.484Z,101546.05
2023-04-18T00:50:55.461Z,101545.60
2023-04-18T00:54:16.404Z,101547.91
2023-04-18T00:57:51.737Z,101545.42
2023-04-18T01:01:40.309Z,101545.33
2023-04-18T01:05:14.290Z,101543.25
2023-04-18T01:08:49.706Z,101544.46
2023-04-18T01:12:37.701Z,101547.98
2023-04-18T01:16:38.256Z,101543.78
2023-04-18T01:19:51.151Z,101543.04
2023-04-18T01:23:30.138Z,101542.03
2023-04-18T01:27:17.114Z,101540.92
2023-04-18T01:30:54.648Z,101543.96
2023-04-18T01:34:22.096Z,101539.05
2023-04-18T01:38:01.253Z,101537.58
2023-04-18T01:41:36.620Z,101538.13
2023-04-18T01:45:22.437Z,101535.85
2023-04-18T01:48:57.447Z,101537.19
2023-04-18T01:52:43.170Z,101538.88
2023-04-18T01:56:27.754Z,101539.44
2023-04-18T01:59:57.721Z,101539.15
2023-04-18T02:03:43.688Z,101537.89
2023-04-18T02:07:18.169Z,101535.20
2023-04-18T02:11:04.590Z,101534.46
2023-04-18T02:14:57.080Z,101533.95
2023-04-18T02:18:36.667Z,101531.66
2023-04-18T02:21:56.784Z,101523.80
2023-04-18T02:25:34.511Z,101523.27
2023-04-18T02:29:12.068Z,101522.05
2023-04-18T02:32:58.157Z,101521.02
2023-04-18T02:36:43.048Z,101518.04
2023-04-18T02:40:28.467Z,101516.42
2023-04-18T02:44:14.763Z,101514.48
2023-04-18T02:47:54.593Z,101513.95
2023-04-18T02:51:21.558Z,101512.92
2023-04-18T02:55:10.239Z,101516.45
2023-04-18T02:58:36.987Z,101518.85
2023-04-18T03:02:52.867Z,101519.48
2023-04-18T03:06:12.614Z,101523.27
2023-04-18T03:09:58.052Z,101526.91
2023-04-18T03:13:28.046Z,101535.10
2023-04-18T03:17:13.936Z,101540.09
2023-04-18T03:21:08.126Z,101541.17
2023-04-18T03:24:27.993Z,101539.73
2023-04-18T03:28:14.730Z,101539.80
2023-04-18T03:31:52.430Z,101538.61
2023-04-18T03:35:28.409Z,101539.79
2023-04-18T03:39:30.230Z,101545.42
2023-04-18T03:42:51.213Z,101540.33
2023-04-18T03:46:38.946Z,101546.67
2023-04-18T03:50:07.570Z,101548.52
2023-04-18T03:53:54.314Z,101553.53
2023-04-18T03:57:37.711Z,101555.23
2023-04-18T04:01:01.119Z,101553.98
2023-04-18T04:04:37.286Z,101557.80
2023-04-18T04:08:29.874Z,101555.09
2023-04-18T04:11:59.659Z,101554.55
2023-04-18T04:15:39.504Z,101554.04
2023-04-18T04:19:13.141Z,101555.23
2023-04-18T04:23:19.945Z,101554.84
2023-04-18T04:26:42.855Z,101561.55
2023-04-18T04:30:19.477Z,101558.77
2023-04-18T04:33:53.990Z,101567.02
2023-04-18T04:37:44.160Z,101567.96
2023-04-18T04:41:16.560Z,101568.53
2023-04-18T04:45:01.696Z,101560.77
2023-04-18T04:48:38.999Z,101568.44
2023-04-18T04:52:20.305Z,101571.17
2023-04-18T04:55:55.149Z,101574.68
2023-04-18T04:59:33.525Z,101572.00
2023-04-18T05:03:19.230Z,101576.04
2023-04-18T05:06:56.541Z,101575.25
2023-04-18T05:10:37.012Z,101576.36
2023-04-18T05:14:12.921Z,101582.65
2023-04-18T05:17:50.748Z,101579.95
2023-04-18T05:21:26.208Z,101578.25
2023-04-18T05:25:12.363Z,101580.52
2023-04-18T05:28:56.005Z,101581.23
2023-04-18T05:32:39.383Z,101582.77
2023-04-18T05:36:24.610Z,101584.48
2023-04-18T05:40:01.617Z,101583.50
2023-04-18T05:43:37.308Z,101587.75
2023-04-18T05:47:24.154Z,101590.45
2023-04-18T05:51:00.994Z,101588.09
2023-04-18T05:54:35.328Z,101588.98
2023-04-18T05:58:36.899Z,101591.95
2023-04-18T06:02:13.002Z,101594.24
2023-04-18T06:05:33.585Z,101595.73
2023-04-18T06:09:18.177Z,101598.14
2023-04-18T06:13:03.142Z,101591.94
2023-04-18T06:16:40.819Z,101595.96
2023-04-18T06:20:18.201Z,101599.04
2023-04-18T06:24:16.540Z,101593.27
2023-04-18T06:27:35.164Z,101594.66
2023-04-18T06:31:11.350Z,101596.58
2023-04-18T06:34:49.188Z,101600.60
2023-04-18T06:38:26.666Z,101600.91
2023-04-18T06:42:11.765Z,101602.15
2023-04-18T06:45:49.514Z,101601.73
2023-04-18T06:49:30.082Z,101602.77
2023-04-18T06:53:24.791Z,101601.38
2023-04-18T06:56:42.090Z,101603.81
2023-04-18T07:00:21.868Z,101601.77
2023-04-18T07:03:57.528Z,101602.39
2023-04-18T07:07:45.378Z,101605.88
2023-04-18T07:11:13.324Z,101606.41
2023-04-18T07:14:58.105Z,101604.95
2023-04-18T07:18:38.514Z,101603.41
2023-04-18T07:22:14.910Z,101610.20
2023-04-18T07:25:51.141Z,101605.30
2023-04-18T07:29:26.744Z,101602.59
2023-04-18T07:33:31.064Z,101604.23
2023-04-18T07:36:47.111Z,101608.60
2023-04-18T07:40:31.868Z,101611.15
2023-04-18T07:44:36.332Z,101609.41
2023-04-18T07:47:47.363Z,101607.53
2023-04-18T07:51:25.415Z,101606.05
2023-04-18T07:55:11.836Z,101603.45
2023-04-18T07:58:47.857Z,101611.04
2023-04-18T08:02:42.101Z,101614.89
2023-04-18T08:06:08.013Z,101617.52
2023-04-18T08:09:41.022Z,101615.33
2023-04-18T08:13:18.537Z,101616.73
2023-04-18T08:17:04.398Z,101616.16
2023-04-18T08:20:31.989Z,101617.54
2023-04-18T08:24:14.746Z,101614.71
2023-04-18T08:27:58.289Z,101610.02
2023-04-18T08:31:42.898Z,101607.77
2023-04-18T08:35:21.974Z,101606.38
2023-04-18T08:38:58.350Z,101602.73
2023-04-18T08:43:04.601Z,101602.59
2023-04-18T08:46:14.586Z,101600.63
2023-04-18T08:50:10.722Z,101602.08
2023-04-18T08:53:39.349Z,101601.29
2023-04-18T08:57:34.492Z,101599.90
2023-04-18T09:00:52.915Z,101599.05
2023-04-18T09:04:36.515Z,101594.85
2023-04-18T09:08:23.880Z,101592.81
2023-04-18T09:11:48.031Z,101592.36
2023-04-18T09:15:20.423Z,101589.27
2023-04-18T09:19:12.913Z,101580.59
2023-04-18T09:22:46.276Z,101573.63
2023-04-18T09:26:10.166Z,101568.41
2023-04-18T09:29:49.497Z,101560.75
2023-04-18T09:34:01.531Z,101559.52
2023-04-18T09:37:11.688Z,101553.38
2023-04-18T09:41:10.800Z,101556.77
2023-04-18T09:45:03.849Z,101553.98
2023-04-18T09:48:12.073Z,101549.56
2023-04-18T09:52:07.196Z,101547.88
2023-04-18T09:55:26.582Z,101545.16
2023-04-18T09:59:11.382Z,101541.31
2023-04-18T10:03:23.557Z,101542.17
2023-04-18T10:06:39.562Z,101534.96
2023-04-18T10:10:26.462Z,101536.29
2023-04-18T10:14:05.952Z,101534.98
2023-04-18T10:18:02.757Z,101532.32
2023-04-18T10:21:17.520Z,101532.25
2023-04-18T10:24:56.406Z,101534.45
2023-04-18T10:28:53.340Z,101527.83
2023-04-18T10:32:28.460Z,101523.70
2023-04-18T10:36:00.705Z,101520.00
2023-04-18T10:39:27.047Z,101518.92
2023-04-18T10:43:21.969Z,101523.30
2023-04-18T10:46:42.981Z,101513.25
2023-04-18T10:50:19.742Z,101514.55
2023-04-18T10:54:00.503Z,101514.56
2023-04-18T10:57:43.981Z,101512.88
2023-04-18T11:01:15.732Z,101512.46
2023-04-18T11:04:52.962Z,101509.98
2023-04-18T11:08:28.759Z,101510.33
2023-04-18T11:12:14.062Z,101500.88
2023-04-18T11:15:52.966Z,101489.96
2023-04-18T11:19:24.225Z,101494.96
2023-04-18T11:23:21.116Z,101492.74
2023-04-18T11:26:50.731Z,101493.23
2023-04-18T11:30:24.520Z,101498.79
2023-04-18T11:34:00.326Z,101484.54
2023-04-18T11:37:53.073Z,101488.23
2023-04-18T11:41:22.784Z,101483.58
2023-04-18T11:45:00.630Z,101481.38
2023-04-18T11:48:39.049Z,101479.38
2023-04-18T11:52:17.038Z,101474.04
2023-04-18T11:56:20.700Z,101470.96
2023-04-18T11:59:30.530Z,101469.95
2023-04-18T12:03:25.714Z,101472.55
2023-04-18T12:06:55.105Z,101464.23
2023-04-18T12:10:32.669Z,101467.09
2023-04-18T12:14:24.182Z,101468.38
2023-04-18T12:17:48.640Z,101468.48
2023-04-18T12:22:00.164Z,101466.50
2023-04-18T12:25:23.389Z,101461.49
2023-04-18T12:28:38.455Z,101460.21
2023-04-18T12:32:22.267Z,101459.63
2023-04-18T12:36:23.815Z,101457.64
2023-04-18T12:39:42.737Z,101456.95
2023-04-18T12:43:27.670Z,101453.09
2023-04-18T12:47:05.197Z,101451.70
2023-04-18T12:50:46.518Z,101449.77
2023-04-18T12:54:30.729Z,101448.05
2023-04-18T12:57:58.162Z,101443.70
2023-04-18T13:01:57.880Z,101443.05
2023-04-18T13:05:21.198Z,101436.91
2023-04-18T13:09:06.287Z,101431.32
2023-04-18T13:13:01.588Z,101425.16
2023-04-18T13:16:19.582Z,101416.56
2023-04-18T13:20:19.913Z,101415.74
2023-04-18T13:23:42.389Z,101413.87
2023-04-18T13:27:19.998Z,101414.59
2023-04-18T13:31:16.338Z,101410.60
2023-04-18T13:34:47.652Z,101405.19
2023-04-18T13:38:11.341Z,101409.91
2023-04-18T13:41:58.019Z,101410.18
2023-04-18T13:45:57.558Z,101408.29
2023-04-18T13:49:35.715Z,101405.84
2023-04-18T13:53:17.453Z,101401.98
2023-04-18T13:56:36.032Z,101401.02
2023-04-18T14:00:15.697Z,101397.66
2023-04-18T14:03:51.339Z,101391.91
2023-04-18T14:07:31.260Z,101391.41
2023-04-18T14:11:04.808Z,101391.30
2023-04-18T14:14:47.495Z,101382.54
2023-04-18T14:18:37.962Z,101382.56
2023-04-18T14:22:25.381Z,101381.02
2023-04-18T14:25:56.282Z,101383.10
2023-04-18T14:29:25.769Z,101377.10
2023-04-18T14:33:01.136Z,101380.13
2023-04-18T14:36:44.765Z,101376.51
2023-04-18T14:40:31.437Z,101372.27
2023-04-18T14:44:07.632Z,101373.05
2023-04-18T14:47:45.850Z,101369.63
2023-04-18T14:51:23.859Z,101370.23
2023-04-18T14:54:58.177Z,101369.79
2023-04-18T14:58:59.814Z,101372.54
2023-04-18T15:02:47.564Z,101366.07
2023-04-18T15:05:57.333Z,101368.98
2023-04-18T15:09:40.563Z,101365.08
2023-04-18T15:13:35.643Z,101362.77
2023-04-18T15:17:07.567Z,101359.60
2023-04-18T15:20:40.648Z,101364.85
2023-04-18T15:24:36.995Z,101366.54
2023-04-18T15:28:13.285Z,101364.94
2023-04-18T15:31:51.657Z,101362.73
2023-04-18T15:35:10.551Z,101364.97
2023-04-18T15:38:58.602Z,101361.06
2023-04-18T15:42:32.975Z,101359.39
2023-04-18T15:46:11.372Z,101360.77
2023-04-18T15:50:09.031Z,101359.80
2023-04-18T15:53:36.241Z,101357.07
2023-04-18T15:57:20.498Z,101355.60
2023-04-18T16:00:41.012Z,101356.73
2023-04-18T16:04:42.676Z,101356.36
2023-04-18T16:08:08.899Z,101356.73
2023-04-18T16:11:39.190Z,101356.17
2023-04-18T16:15:24.122Z,101350.94
2023-04-18T16:19:00.730Z,101350.91
2023-04-18T16:23:02.504Z,101348.89
2023-04-18T16:26:41.015Z,101348.09
2023-04-18T16:30:01.150Z,101348.42
2023-04-18T16:33:42.021Z,101346.12
2023-04-18T16:37:14.242Z,101340.81
2023-04-18T16:40:58.869Z,101341.66
2023-04-18T16:44:41.753Z,101336.44
2023-04-18T16:48:41.394Z,101334.95
2023-04-18T16:52:14.193Z,101334.35
2023-04-18T16:55:40.208Z,101337.56
2023-04-18T16:59:23.842Z,101332.48
2023-04-18T17:03:10.064Z,101335.42
2023-04-18T17:07:11.717Z,101333.36
2023-04-18T17:10:34.403Z,101334.69
2023-04-18T17:14:20.321Z,101330.36
2023-04-18T17:18:05.266Z,101333.54
2023-04-18T17:21:23.739Z,101331.88
2023-04-18T17:25:26.980Z,101332.05
2023-04-18T17:29:13.399Z,101335.13
2023-04-18T17:32:27.332Z,101333.50
2023-04-18T17:36:26.552Z,101335.86
2023-04-18T17:39:56.521Z,101334.79
2023-04-18T17:43:15.123Z,101333.98
2023-04-18T17:47:07.899Z,101333.48
2023-04-18T17:50:38.152Z,101330.83
2023-04-18T17:54:13.550Z,101331.19
2023-04-18T17:57:59.277Z,101333.05
2023-04-18T18:01:39.341Z,101330.77
2023-04-18T18:05:14.754Z,101330.81
2023-04-18T18:08:49.357Z,101328.39
2023-04-18T18:12:35.274Z,101327.95
2023-04-18T18:16:27.952Z,101328.16
2023-04-18T18:20:06.358Z,101328.64
2023-04-18T18:23:55.895Z,101331.65
2023-04-18T18:27:23.228Z,101326.25
2023-04-18T18:30:52.460Z,101324.07
2023-04-18T18:34:29.897Z,101320.08
2023-04-18T18:38:18.102Z,101315.27
2023-04-18T18:42:09.325Z,101314.95
2023-04-18T18:45:33.844Z,101313.02
2023-04-18T18:49:18.417Z,101313.67
2023-04-18T18:52:44.219Z,101311.52
2023-04-18T18:56:28.832Z,101306.73
2023-04-18T19:00:10.815Z,101307.27
2023-04-18T19:03:42.594Z,101302.11
2023-04-18T19:07:27.482Z,101295.20
2023-04-18T19:11:28.994Z,101297.06
2023-04-18T19:14:59.166Z,101293.38
2023-04-18T19:18:28.939Z,101296.91
2023-04-18T19:22:14.336Z,101292.23
2023-04-18T19:25:47.748Z,101290.55
2023-04-18T19:29:23.270Z,101284.46
2023-04-18T19:32:59.407Z,101282.42
2023-04-18T19:36:52.838Z,101280.66
2023-04-18T19:40:39.734Z,101277.58
2023-04-18T19:43:52.446Z,101273.20
2023-04-18T19:47:32.312Z,101273.41
2023-04-18T19:51:24.948Z,101270.57
2023-04-18T19:54:54.492Z,101267.55
2023-04-18T19:58:44.918Z,101266.88
2023-04-18T20:02:16.724Z,101261.14
2023-04-18T20:05:55.703Z,101264.35
2023-04-18T20:09:30.184Z,101259.58
2023-04-18T20:13:15.305Z,101258.77
2023-04-18T20:16:59.326Z,101252.91
2023-04-18T20:20:42.758Z,101252.29
2023-04-18T20:24:28.290Z,101246.09
2023-04-18T20:28:13.460Z,101239.38
2023-04-18T20:32:05.172Z,101241.00
2023-04-18T20:35:29.788Z,101238.21
2023-04-18T20:39:06.351Z,101238.11
2023-04-18T20:42:51.928Z,101235.58
2023-04-18T20:46:29.168Z,101234.33
2023-04-18T20:50:23.322Z,101226.33
2023-04-18T20:53:47.592Z,101226.09
2023-04-18T20:57:31.944Z,101227.10
2023-04-18T21:00:59.507Z,101221.36
2023-04-18T21:04:36.343Z,101221.86
2023-04-18T21:08:21.124Z,101214.25
2023-04-18T21:12:06.427Z,101213.83
2023-04-18T21:15:52.047Z,101207.13
2023-04-18T21:19:28.837Z,101201.52
2023-04-18T21:23:07.394Z,101196.38
2023-04-18T21:26:44.232Z,101195.97
2023-04-18T21:30:38.821Z,101196.71
2023-04-18T21:34:00.937Z,101188.02
2023-04-18T21:37:37.657Z,101187.31
2023-04-18T21:41:17.339Z,101185.43
2023-04-18T21:45:02.047Z,101184.76
2023-04-18T21:48:37.657Z,101181.24
2023-04-18T21:52:22.260Z,101177.23
2023-04-18T21:55:59.071Z,101178.31
2023-04-18T21:59:43.607Z,101176.55
2023-04-18T22:03:29.758Z,101172.73
2023-04-18T22:07:06.709Z,101169.58
2023-04-18T22:10:50.457Z,101165.73
2023-04-18T22:14:21.339Z,101166.41
2023-04-18T22:18:00.052Z,101164.67
2023-04-18T22:21:36.796Z,101164.66
2023-04-18T22:25:14.603Z,101165.17
2023-04-18T22:28:52.196Z,101160.30
2023-04-18T22:32:29.920Z,101159.27
2023-04-18T22:36:09.032Z,101156.55
2023-04-18T22:39:46.182Z,101148.64
2023-04-18T22:43:25.060Z,101148.98
2023-04-18T22:47:03.267Z,101149.98
2023-04-18T22:50:42.625Z,101143.20
2023-04-18T22:54:26.402Z,101140.56
2023-04-18T22:57:57.305Z,101138.38
2023-04-18T23:01:31.646Z,101130.10
2023-04-18T23:05:12.051Z,101130.87
2023-04-18T23:08:47.882Z,101123.81
2023-04-18T23:12:23.696Z,101122.09
2023-04-18T23:16:10.110Z,101119.88
2023-04-18T23:19:49.770Z,101117.33
2023-04-18T23:23:27.463Z,101108.80
2023-04-18T23:27:01.581Z,101101.02
2023-04-18T23:30:39.421Z,101095.31
2023-04-18T23:34:16.970Z,101089.45
2023-04-18T23:37:54.439Z,101082.08
2023-04-18T23:41:39.986Z,101080.23
2023-04-18T23:45:17.264Z,101082.27
2023-04-18T23:48:54.699Z,101084.30
2023-04-18T23:52:48.006Z,101084.03
2023-04-18T23:56:10.369Z,101079.01
